EBCI/CRL METAR and TAF weather

Enter ICAO airport designator
Station Type Date Time Source
EBCI METAR 2019/12/07 09:50 UTC NOAA

EBCI 070950Z 22009KT 9999 BKN040 08/06 Q1015 NOSIG


Station Type Date Time Source
EBCI Decoded METAR 2019/12/07 09:50 UTC NOAA

Charleroi / Gosselies, Belgium (EBCI) 50-28N 004-27E 192M
Dec 07, 2019 - 04:50 AM EST / 2019.12.07 0950 UTC
Wind: from the SW (220 degrees) at 10 MPH (9 KT):0
Visibility: greater than 7 mile(s):0
Sky conditions: mostly cloudy
Temperature: 46 F (8 C)
Dew Point: 42 F (6 C)
Relative Humidity: 87%
Pressure (altimeter): 29.97 in. Hg (1015 hPa)
ob: EBCI 070950Z 22009KT 9999 BKN040 08/06 Q1015 NOSIG
cycle: 10

Station Type Date Time Source
EBCI TAF 2019/12/07 06:40 UTC NOAA

TAF COR EBCI 070520Z 0706/0812 24012KT 9999 FEW012
BECMG 0802/0804 21018G30KT
TEMPO 0802/0806 BKN006
TEMPO 0806/0810 2200 RA BKN010
BECMG 0810/0812 25015KT

Example: see airport list